sensor_id;sensor_type;location;lat;lon;timestamp;P1;durP1;ratioP1;P2;durP2;ratioP2
14187;SDS011;7175;51.978;5.330;2023-01-30T00:02:00;71.80;;;66.60;;
14187;SDS011;7175;51.978;5.330;2023-01-30T00:04:28;68.67;;;63.67;;
14187;SDS011;7175;51.978;5.330;2023-01-30T00:06:56;74.53;;;69.03;;
14187;SDS011;7175;51.978;5.330;2023-01-30T00:09:25;75.70;;;69.73;;
14187;SDS011;7175;51.978;5.330;2023-01-30T00:11:53;75.93;;;70.43;;
14187;SDS011;7175;51.978;5.330;2023-01-30T00:14:21;72.90;;;67.57;;
14187;SDS011;7175;51.978;5.330;2023-01-30T00:16:50;71.30;;;66.00;;
14187;SDS011;7175;51.978;5.330;2023-01-30T00:19:18;74.20;;;68.70;;
14187;SDS011;7175;51.978;5.330;2023-01-30T00:21:46;71.23;;;65.93;;
14187;SDS011;7175;51.978;5.330;2023-01-30T00:24:14;72.87;;;67.57;;
14187;SDS011;7175;51.978;5.330;2023-01-30T00:26:43;73.07;;;67.77;;
14187;SDS011;7175;51.978;5.330;2023-01-30T00:29:11;75.67;;;69.80;;
14187;SDS011;7175;51.978;5.330;2023-01-30T00:31:40;75.57;;;70.07;;
14187;SDS011;7175;51.978;5.330;2023-01-30T00:34:08;70.47;;;65.27;;
14187;SDS011;7175;51.978;5.330;2023-01-30T00:36:36;73.50;;;68.20;;
14187;SDS011;7175;51.978;5.330;2023-01-30T00:39:04;72.97;;;67.67;;
14187;SDS011;7175;51.978;5.330;2023-01-30T00:41:32;72.90;;;67.60;;
14187;SDS011;7175;51.978;5.330;2023-01-30T00:44:15;72.83;;;67.57;;
14187;SDS011;7175;51.978;5.330;2023-01-30T00:47:01;73.67;;;68.43;;
14187;SDS011;7175;51.978;5.330;2023-01-30T00:49:34;72.93;;;67.73;;
14187;SDS011;7175;51.978;5.330;2023-01-30T00:52:02;70.80;;;65.70;;
14187;SDS011;7175;51.978;5.330;2023-01-30T00:54:31;67.03;;;62.03;;
14187;SDS011;7175;51.978;5.330;2023-01-30T00:56:59;67.23;;;62.23;;
14187;SDS011;7175;51.978;5.330;2023-01-30T00:59:29;70.10;;;65.00;;
14187;SDS011;7175;51.978;5.330;2023-01-30T01:01:57;70.57;;;65.47;;
14187;SDS011;7175;51.978;5.330;2023-01-30T01:04:25;74.33;;;69.03;;
14187;SDS011;7175;51.978;5.330;2023-01-30T01:06:53;71.73;;;66.53;;
14187;SDS011;7175;51.978;5.330;2023-01-30T01:09:21;73.40;;;68.20;;
14187;SDS011;7175;51.978;5.330;2023-01-30T01:11:49;73.47;;;68.27;;
14187;SDS011;7175;51.978;5.330;2023-01-30T01:14:17;75.70;;;70.17;;
14187;SDS011;7175;51.978;5.330;2023-01-30T01:16:47;68.97;;;63.97;;
14187;SDS011;7175;51.978;5.330;2023-01-30T01:19:15;67.27;;;62.37;;
14187;SDS011;7175;51.978;5.330;2023-01-30T01:21:43;69.60;;;64.60;;
14187;SDS011;7175;51.978;5.330;2023-01-30T01:24:12;71.10;;;66.10;;
14187;SDS011;7175;51.978;5.330;2023-01-30T01:26:41;70.77;;;65.77;;
14187;SDS011;7175;51.978;5.330;2023-01-30T01:29:10;70.10;;;65.10;;
14187;SDS011;7175;51.978;5.330;2023-01-30T01:31:39;69.63;;;64.63;;
14187;SDS011;7175;51.978;5.330;2023-01-30T01:34:09;68.80;;;63.80;;
14187;SDS011;7175;51.978;5.330;2023-01-30T01:36:37;68.20;;;63.20;;
14187;SDS011;7175;51.978;5.330;2023-01-30T01:39:21;66.77;;;61.93;;
14187;SDS011;7175;51.978;5.330;2023-01-30T01:41:49;68.73;;;63.73;;
14187;SDS011;7175;51.978;5.330;2023-01-30T01:44:16;70.50;;;65.50;;
14187;SDS011;7175;51.978;5.330;2023-01-30T01:46:45;69.53;;;64.53;;
14187;SDS011;7175;51.978;5.330;2023-01-30T01:49:19;68.40;;;63.40;;
14187;SDS011;7175;51.978;5.330;2023-01-30T01:51:51;68.10;;;63.17;;
14187;SDS011;7175;51.978;5.330;2023-01-30T01:54:24;69.63;;;64.63;;
14187;SDS011;7175;51.978;5.330;2023-01-30T01:56:58;70.50;;;65.20;;
14187;SDS011;7175;51.978;5.330;2023-01-30T01:59:29;69.70;;;64.70;;
14187;SDS011;7175;51.978;5.330;2023-01-30T02:02:02;70.20;;;65.10;;
14187;SDS011;7175;51.978;5.330;2023-01-30T02:04:37;72.53;;;67.33;;
14187;SDS011;7175;51.978;5.330;2023-01-30T02:07:24;73.80;;;68.53;;
14187;SDS011;7175;51.978;5.330;2023-01-30T02:09:55;73.53;;;68.33;;
14187;SDS011;7175;51.978;5.330;2023-01-30T02:12:24;74.50;;;68.23;;
14187;SDS011;7175;51.978;5.330;2023-01-30T02:14:52;70.70;;;65.10;;
14187;SDS011;7175;51.978;5.330;2023-01-30T02:17:22;72.80;;;67.50;;
14187;SDS011;7175;51.978;5.330;2023-01-30T02:19:54;73.80;;;68.40;;
14187;SDS011;7175;51.978;5.330;2023-01-30T02:22:44;67.20;;;62.00;;
14187;SDS011;7175;51.978;5.330;2023-01-30T02:31:32;80.17;;;74.47;;
14187;SDS011;7175;51.978;5.330;2023-01-30T02:34:08;78.83;;;73.23;;
14187;SDS011;7175;51.978;5.330;2023-01-30T02:36:48;82.00;;;76.20;;
14187;SDS011;7175;51.978;5.330;2023-01-30T02:39:24;81.53;;;75.73;;
14187;SDS011;7175;51.978;5.330;2023-01-30T02:42:00;80.80;;;74.97;;
14187;SDS011;7175;51.978;5.330;2023-01-30T02:44:37;78.83;;;73.13;;
14187;SDS011;7175;51.978;5.330;2023-01-30T02:47:13;79.47;;;73.67;;
14187;SDS011;7175;51.978;5.330;2023-01-30T02:49:48;77.87;;;72.17;;
14187;SDS011;7175;51.978;5.330;2023-01-30T02:52:21;81.23;;;75.43;;
14187;SDS011;7175;51.978;5.330;2023-01-30T02:54:49;77.10;;;71.50;;
14187;SDS011;7175;51.978;5.330;2023-01-30T02:57:18;80.50;;;74.70;;
14187;SDS011;7175;51.978;5.330;2023-01-30T02:59:48;78.93;;;73.23;;
14187;SDS011;7175;51.978;5.330;2023-01-30T03:02:34;82.93;;;76.93;;
14187;SDS011;7175;51.978;5.330;2023-01-30T03:05:20;78.97;;;73.20;;
14187;SDS011;7175;51.978;5.330;2023-01-30T03:08:07;81.50;;;75.63;;
14187;SDS011;7175;51.978;5.330;2023-01-30T03:10:48;79.60;;;73.80;;
14187;SDS011;7175;51.978;5.330;2023-01-30T03:13:24;82.33;;;76.33;;
14187;SDS011;7175;51.978;5.330;2023-01-30T03:15:58;81.40;;;75.40;;
14187;SDS011;7175;51.978;5.330;2023-01-30T03:18:31;80.40;;;74.50;;
14187;SDS011;7175;51.978;5.330;2023-01-30T03:21:02;81.03;;;75.13;;
14187;SDS011;7175;51.978;5.330;2023-01-30T03:23:31;83.77;;;77.77;;
14187;SDS011;7175;51.978;5.330;2023-01-30T03:25:59;84.20;;;78.10;;
14187;SDS011;7175;51.978;5.330;2023-01-30T03:28:30;83.90;;;77.90;;
14187;SDS011;7175;51.978;5.330;2023-01-30T03:30:59;86.30;;;80.20;;
14187;SDS011;7175;51.978;5.330;2023-01-30T03:33:27;89.10;;;82.83;;
14187;SDS011;7175;51.978;5.330;2023-01-30T03:35:57;89.77;;;83.47;;
14187;SDS011;7175;51.978;5.330;2023-01-30T03:38:25;89.70;;;83.40;;
14187;SDS011;7175;51.978;5.330;2023-01-30T03:40:53;90.30;;;84.00;;
14187;SDS011;7175;51.978;5.330;2023-01-30T03:43:21;89.83;;;83.53;;
14187;SDS011;7175;51.978;5.330;2023-01-30T03:45:49;90.80;;;84.50;;
14187;SDS011;7175;51.978;5.330;2023-01-30T03:48:18;90.83;;;84.53;;
14187;SDS011;7175;51.978;5.330;2023-01-30T03:50:46;88.87;;;82.60;;
14187;SDS011;7175;51.978;5.330;2023-01-30T03:53:15;91.47;;;85.13;;
14187;SDS011;7175;51.978;5.330;2023-01-30T03:55:43;89.27;;;82.97;;
14187;SDS011;7175;51.978;5.330;2023-01-30T03:58:12;90.03;;;83.70;;
14187;SDS011;7175;51.978;5.330;2023-01-30T04:00:40;91.70;;;85.30;;
14187;SDS011;7175;51.978;5.330;2023-01-30T04:03:08;92.47;;;85.87;;
14187;SDS011;7175;51.978;5.330;2023-01-30T04:05:36;93.50;;;86.90;;
14187;SDS011;7175;51.978;5.330;2023-01-30T04:08:05;91.90;;;85.47;;
14187;SDS011;7175;51.978;5.330;2023-01-30T04:10:34;89.83;;;83.43;;
14187;SDS011;7175;51.978;5.330;2023-01-30T04:13:02;89.90;;;83.50;;
14187;SDS011;7175;51.978;5.330;2023-01-30T04:15:30;87.87;;;81.57;;
14187;SDS011;7175;51.978;5.330;2023-01-30T04:17:58;87.30;;;81.00;;
14187;SDS011;7175;51.978;5.330;2023-01-30T04:20:26;89.47;;;83.07;;
14187;SDS011;7175;51.978;5.330;2023-01-30T04:22:54;93.17;;;86.57;;
14187;SDS011;7175;51.978;5.330;2023-01-30T04:25:23;95.87;;;89.17;;
14187;SDS011;7175;51.978;5.330;2023-01-30T04:27:52;89.67;;;83.27;;
14187;SDS011;7175;51.978;5.330;2023-01-30T04:30:20;90.40;;;83.90;;
14187;SDS011;7175;51.978;5.330;2023-01-30T04:32:49;90.27;;;83.77;;
14187;SDS011;7175;51.978;5.330;2023-01-30T04:35:17;95.07;;;88.27;;
14187;SDS011;7175;51.978;5.330;2023-01-30T04:37:45;92.17;;;85.67;;
14187;SDS011;7175;51.978;5.330;2023-01-30T04:40:13;93.97;;;87.27;;
14187;SDS011;7175;51.978;5.330;2023-01-30T04:42:42;95.40;;;88.70;;
14187;SDS011;7175;51.978;5.330;2023-01-30T04:45:11;91.53;;;85.00;;
14187;SDS011;7175;51.978;5.330;2023-01-30T04:47:39;91.00;;;84.50;;
14187;SDS011;7175;51.978;5.330;2023-01-30T04:50:08;92.20;;;85.70;;
14187;SDS011;7175;51.978;5.330;2023-01-30T04:52:37;93.90;;;87.40;;
14187;SDS011;7175;51.978;5.330;2023-01-30T04:55:05;89.27;;;82.87;;
14187;SDS011;7175;51.978;5.330;2023-01-30T04:57:34;84.43;;;78.23;;
14187;SDS011;7175;51.978;5.330;2023-01-30T05:00:02;92.10;;;85.57;;
14187;SDS011;7175;51.978;5.330;2023-01-30T05:02:32;86.97;;;80.67;;
14187;SDS011;7175;51.978;5.330;2023-01-30T05:05:00;85.37;;;79.07;;
14187;SDS011;7175;51.978;5.330;2023-01-30T05:07:29;86.93;;;80.53;;
14187;SDS011;7175;51.978;5.330;2023-01-30T05:09:57;84.37;;;78.17;;
14187;SDS011;7175;51.978;5.330;2023-01-30T05:12:25;77.30;;;71.40;;
14187;SDS011;7175;51.978;5.330;2023-01-30T05:14:53;80.90;;;74.83;;
14187;SDS011;7175;51.978;5.330;2023-01-30T05:17:21;80.90;;;74.87;;
14187;SDS011;7175;51.978;5.330;2023-01-30T05:19:50;80.97;;;74.87;;
14187;SDS011;7175;51.978;5.330;2023-01-30T05:22:18;80.67;;;74.67;;
14187;SDS011;7175;51.978;5.330;2023-01-30T05:24:46;80.23;;;74.23;;
14187;SDS011;7175;51.978;5.330;2023-01-30T05:27:15;77.10;;;71.30;;
14187;SDS011;7175;51.978;5.330;2023-01-30T05:29:43;75.30;;;69.60;;
14187;SDS011;7175;51.978;5.330;2023-01-30T05:32:11;71.47;;;66.07;;
14187;SDS011;7175;51.978;5.330;2023-01-30T05:34:40;70.40;;;65.17;;
14187;SDS011;7175;51.978;5.330;2023-01-30T05:37:10;68.40;;;63.30;;
14187;SDS011;7175;51.978;5.330;2023-01-30T05:39:38;67.77;;;62.87;;
14187;SDS011;7175;51.978;5.330;2023-01-30T05:42:07;66.80;;;62.00;;
14187;SDS011;7175;51.978;5.330;2023-01-30T05:44:35;66.50;;;61.70;;
14187;SDS011;7175;51.978;5.330;2023-01-30T05:47:03;66.57;;;61.77;;
14187;SDS011;7175;51.978;5.330;2023-01-30T05:49:31;65.17;;;60.57;;
14187;SDS011;7175;51.978;5.330;2023-01-30T05:51:59;65.07;;;60.57;;
14187;SDS011;7175;51.978;5.330;2023-01-30T05:54:28;63.80;;;59.30;;
14187;SDS011;7175;51.978;5.330;2023-01-30T05:56:56;61.43;;;57.20;;
14187;SDS011;7175;51.978;5.330;2023-01-30T05:59:24;61.40;;;57.10;;
14187;SDS011;7175;51.978;5.330;2023-01-30T06:01:53;63.00;;;58.40;;
14187;SDS011;7175;51.978;5.330;2023-01-30T06:04:21;56.47;;;52.47;;
14187;SDS011;7175;51.978;5.330;2023-01-30T06:06:49;58.30;;;54.30;;
14187;SDS011;7175;51.978;5.330;2023-01-30T06:09:17;56.33;;;52.43;;
14187;SDS011;7175;51.978;5.330;2023-01-30T06:11:47;55.03;;;51.13;;
14187;SDS011;7175;51.978;5.330;2023-01-30T06:14:18;54.17;;;50.33;;
14187;SDS011;7175;51.978;5.330;2023-01-30T06:16:46;55.73;;;51.73;;
14187;SDS011;7175;51.978;5.330;2023-01-30T06:19:14;57.50;;;53.50;;
14187;SDS011;7175;51.978;5.330;2023-01-30T06:21:43;57.47;;;53.27;;
14187;SDS011;7175;51.978;5.330;2023-01-30T06:24:11;58.20;;;54.10;;
14187;SDS011;7175;51.978;5.330;2023-01-30T06:26:39;58.50;;;54.40;;
14187;SDS011;7175;51.978;5.330;2023-01-30T06:29:08;58.57;;;54.37;;
14187;SDS011;7175;51.978;5.330;2023-01-30T06:31:37;57.73;;;53.57;;
14187;SDS011;7175;51.978;5.330;2023-01-30T06:34:05;58.20;;;54.00;;
14187;SDS011;7175;51.978;5.330;2023-01-30T06:36:33;58.03;;;53.83;;
14187;SDS011;7175;51.978;5.330;2023-01-30T06:39:01;60.87;;;56.43;;
14187;SDS011;7175;51.978;5.330;2023-01-30T06:41:30;61.63;;;57.13;;
14187;SDS011;7175;51.978;5.330;2023-01-30T06:43:58;59.40;;;55.10;;
14187;SDS011;7175;51.978;5.330;2023-01-30T06:46:27;58.13;;;53.83;;
14187;SDS011;7175;51.978;5.330;2023-01-30T06:48:55;59.07;;;54.70;;
14187;SDS011;7175;51.978;5.330;2023-01-30T06:51:24;61.90;;;57.40;;
14187;SDS011;7175;51.978;5.330;2023-01-30T06:53:52;59.97;;;55.57;;
14187;SDS011;7175;51.978;5.330;2023-01-30T06:56:21;58.37;;;53.97;;
14187;SDS011;7175;51.978;5.330;2023-01-30T06:58:49;62.00;;;57.40;;
14187;SDS011;7175;51.978;5.330;2023-01-30T07:01:17;62.93;;;58.37;;
14187;SDS011;7175;51.978;5.330;2023-01-30T07:03:48;63.20;;;58.60;;
14187;SDS011;7175;51.978;5.330;2023-01-30T07:06:16;66.30;;;61.30;;
14187;SDS011;7175;51.978;5.330;2023-01-30T07:08:44;65.43;;;60.53;;
14187;SDS011;7175;51.978;5.330;2023-01-30T07:11:12;63.03;;;58.47;;
14187;SDS011;7175;51.978;5.330;2023-01-30T07:13:40;62.03;;;57.63;;
14187;SDS011;7175;51.978;5.330;2023-01-30T07:16:08;61.00;;;56.60;;
14187;SDS011;7175;51.978;5.330;2023-01-30T07:18:36;59.67;;;55.40;;
14187;SDS011;7175;51.978;5.330;2023-01-30T07:21:06;61.53;;;57.13;;
14187;SDS011;7175;51.978;5.330;2023-01-30T07:23:34;58.83;;;54.53;;
14187;SDS011;7175;51.978;5.330;2023-01-30T07:26:02;56.30;;;52.20;;
14187;SDS011;7175;51.978;5.330;2023-01-30T07:28:31;55.37;;;51.37;;
14187;SDS011;7175;51.978;5.330;2023-01-30T07:30:59;57.83;;;53.63;;
14187;SDS011;7175;51.978;5.330;2023-01-30T07:33:27;54.03;;;50.13;;
14187;SDS011;7175;51.978;5.330;2023-01-30T07:35:55;59.07;;;54.97;;
14187;SDS011;7175;51.978;5.330;2023-01-30T07:38:25;49.60;;;46.10;;
14187;SDS011;7175;51.978;5.330;2023-01-30T07:40:55;40.37;;;37.47;;
14187;SDS011;7175;51.978;5.330;2023-01-30T07:43:24;41.77;;;38.77;;
14187;SDS011;7175;51.978;5.330;2023-01-30T07:45:52;35.87;;;33.17;;
14187;SDS011;7175;51.978;5.330;2023-01-30T07:48:20;37.63;;;34.83;;
14187;SDS011;7175;51.978;5.330;2023-01-30T07:50:48;39.27;;;36.33;;
14187;SDS011;7175;51.978;5.330;2023-01-30T07:53:16;36.27;;;33.57;;
14187;SDS011;7175;51.978;5.330;2023-01-30T07:55:46;34.70;;;32.10;;
14187;SDS011;7175;51.978;5.330;2023-01-30T07:58:14;35.73;;;33.03;;
14187;SDS011;7175;51.978;5.330;2023-01-30T08:00:43;34.73;;;31.93;;
14187;SDS011;7175;51.978;5.330;2023-01-30T08:03:11;46.27;;;42.97;;
14187;SDS011;7175;51.978;5.330;2023-01-30T08:05:40;41.47;;;38.37;;
14187;SDS011;7175;51.978;5.330;2023-01-30T08:08:09;45.23;;;41.93;;
14187;SDS011;7175;51.978;5.330;2023-01-30T08:10:37;45.40;;;42.10;;
14187;SDS011;7175;51.978;5.330;2023-01-30T08:13:07;47.77;;;42.43;;
14187;SDS011;7175;51.978;5.330;2023-01-30T08:15:35;45.80;;;42.50;;
14187;SDS011;7175;51.978;5.330;2023-01-30T08:18:03;44.27;;;41.07;;
14187;SDS011;7175;51.978;5.330;2023-01-30T08:20:32;43.90;;;40.70;;
14187;SDS011;7175;51.978;5.330;2023-01-30T08:23:01;44.20;;;41.00;;
14187;SDS011;7175;51.978;5.330;2023-01-30T08:25:29;44.57;;;41.37;;
14187;SDS011;7175;51.978;5.330;2023-01-30T08:27:57;44.00;;;40.80;;
14187;SDS011;7175;51.978;5.330;2023-01-30T08:30:27;43.97;;;40.77;;
14187;SDS011;7175;51.978;5.330;2023-01-30T08:32:56;43.83;;;40.63;;
14187;SDS011;7175;51.978;5.330;2023-01-30T08:35:25;42.23;;;39.20;;
14187;SDS011;7175;51.978;5.330;2023-01-30T08:37:53;44.30;;;41.10;;
14187;SDS011;7175;51.978;5.330;2023-01-30T08:40:21;39.70;;;36.80;;
14187;SDS011;7175;51.978;5.330;2023-01-30T08:42:49;40.80;;;37.80;;
14187;SDS011;7175;51.978;5.330;2023-01-30T08:45:17;39.63;;;36.63;;
14187;SDS011;7175;51.978;5.330;2023-01-30T08:47:47;41.00;;;38.00;;
14187;SDS011;7175;51.978;5.330;2023-01-30T08:50:15;37.93;;;35.13;;
14187;SDS011;7175;51.978;5.330;2023-01-30T08:52:44;37.27;;;34.57;;
14187;SDS011;7175;51.978;5.330;2023-01-30T08:55:12;36.50;;;33.77;;
14187;SDS011;7175;51.978;5.330;2023-01-30T08:57:40;36.33;;;33.63;;
14187;SDS011;7175;51.978;5.330;2023-01-30T09:00:09;35.87;;;33.17;;
14187;SDS011;7175;51.978;5.330;2023-01-30T09:02:38;34.37;;;31.77;;
14187;SDS011;7175;51.978;5.330;2023-01-30T09:05:08;33.27;;;30.67;;
14187;SDS011;7175;51.978;5.330;2023-01-30T09:07:37;31.97;;;29.47;;
14187;SDS011;7175;51.978;5.330;2023-01-30T09:10:05;29.67;;;27.27;;
14187;SDS011;7175;51.978;5.330;2023-01-30T09:12:34;29.10;;;26.80;;
14187;SDS011;7175;51.978;5.330;2023-01-30T09:15:02;29.20;;;26.80;;
14187;SDS011;7175;51.978;5.330;2023-01-30T09:17:31;28.97;;;26.67;;
14187;SDS011;7175;51.978;5.330;2023-01-30T09:19:59;28.57;;;26.27;;
14187;SDS011;7175;51.978;5.330;2023-01-30T09:22:29;29.03;;;26.73;;
14187;SDS011;7175;51.978;5.330;2023-01-30T09:24:57;27.10;;;24.90;;
14187;SDS011;7175;51.978;5.330;2023-01-30T09:27:25;26.50;;;24.30;;
14187;SDS011;7175;51.978;5.330;2023-01-30T09:29:54;24.90;;;22.87;;
14187;SDS011;7175;51.978;5.330;2023-01-30T09:32:22;25.60;;;23.50;;
14187;SDS011;7175;51.978;5.330;2023-01-30T09:34:50;24.97;;;22.87;;
14187;SDS011;7175;51.978;5.330;2023-01-30T09:37:18;24.77;;;22.73;;
14187;SDS011;7175;51.978;5.330;2023-01-30T09:39:48;25.13;;;23.03;;
14187;SDS011;7175;51.978;5.330;2023-01-30T09:48:05;23.00;;;21.10;;
14187;SDS011;7175;51.978;5.330;2023-01-30T09:50:47;23.27;;;21.37;;
14187;SDS011;7175;51.978;5.330;2023-01-30T09:56:57;22.70;;;20.80;;
14187;SDS011;7175;51.978;5.330;2023-01-30T09:59:52;22.53;;;20.63;;
14187;SDS011;7175;51.978;5.330;2023-01-30T10:02:35;22.30;;;20.40;;
14187;SDS011;7175;51.978;5.330;2023-01-30T10:05:07;23.27;;;21.33;;
14187;SDS011;7175;51.978;5.330;2023-01-30T10:07:39;22.57;;;20.67;;
14187;SDS011;7175;51.978;5.330;2023-01-30T10:10:23;22.43;;;20.53;;
14187;SDS011;7175;51.978;5.330;2023-01-30T10:13:03;22.67;;;20.77;;
14187;SDS011;7175;51.978;5.330;2023-01-30T10:15:41;22.90;;;21.00;;
14187;SDS011;7175;51.978;5.330;2023-01-30T10:18:33;21.77;;;19.87;;
14187;SDS011;7175;51.978;5.330;2023-01-30T10:21:23;21.77;;;19.97;;
14187;SDS011;7175;51.978;5.330;2023-01-30T10:24:09;21.83;;;20.03;;
14187;SDS011;7175;51.978;5.330;2023-01-30T10:26:45;22.10;;;20.30;;
14187;SDS011;7175;51.978;5.330;2023-01-30T10:29:17;21.67;;;19.87;;
14187;SDS011;7175;51.978;5.330;2023-01-30T10:31:54;21.03;;;19.33;;
14187;SDS011;7175;51.978;5.330;2023-01-30T10:34:28;21.30;;;19.50;;
14187;SDS011;7175;51.978;5.330;2023-01-30T10:37:01;21.97;;;20.17;;
14187;SDS011;7175;51.978;5.330;2023-01-30T10:39:35;22.10;;;20.30;;
14187;SDS011;7175;51.978;5.330;2023-01-30T10:42:22;21.97;;;20.17;;
14187;SDS011;7175;51.978;5.330;2023-01-30T10:44:59;22.00;;;20.20;;
14187;SDS011;7175;51.978;5.330;2023-01-30T10:47:44;21.20;;;19.40;;
14187;SDS011;7175;51.978;5.330;2023-01-30T10:50:24;21.13;;;19.33;;
14187;SDS011;7175;51.978;5.330;2023-01-30T10:52:58;20.63;;;18.83;;
14187;SDS011;7175;51.978;5.330;2023-01-30T10:55:36;22.50;;;20.60;;
14187;SDS011;7175;51.978;5.330;2023-01-30T10:58:12;20.57;;;18.87;;
14187;SDS011;7175;51.978;5.330;2023-01-30T11:00:48;20.90;;;19.20;;
14187;SDS011;7175;51.978;5.330;2023-01-30T11:03:21;19.77;;;18.17;;
14187;SDS011;7175;51.978;5.330;2023-01-30T11:05:55;20.10;;;18.40;;
14187;SDS011;7175;51.978;5.330;2023-01-30T11:08:28;20.30;;;18.60;;
14187;SDS011;7175;51.978;5.330;2023-01-30T11:10:58;20.10;;;18.40;;
14187;SDS011;7175;51.978;5.330;2023-01-30T11:13:28;21.03;;;19.33;;
14187;SDS011;7175;51.978;5.330;2023-01-30T11:16:01;21.30;;;19.60;;
14187;SDS011;7175;51.978;5.330;2023-01-30T11:18:32;21.50;;;19.70;;
14187;SDS011;7175;51.978;5.330;2023-01-30T11:21:30;20.60;;;18.90;;
14187;SDS011;7175;51.978;5.330;2023-01-30T11:24:13;20.73;;;19.13;;
14187;SDS011;7175;51.978;5.330;2023-01-30T11:26:43;20.13;;;18.53;;
14187;SDS011;7175;51.978;5.330;2023-01-30T11:29:15;20.47;;;18.87;;
14187;SDS011;7175;51.978;5.330;2023-01-30T11:31:57;21.00;;;19.30;;
14187;SDS011;7175;51.978;5.330;2023-01-30T11:34:29;20.00;;;18.40;;
14187;SDS011;7175;51.978;5.330;2023-01-30T11:37:11;25.33;;;19.13;;
14187;SDS011;7175;51.978;5.330;2023-01-30T11:39:46;21.07;;;19.47;;
14187;SDS011;7175;51.978;5.330;2023-01-30T11:42:17;19.50;;;18.00;;
14187;SDS011;7175;51.978;5.330;2023-01-30T11:44:46;21.77;;;19.80;;
14187;SDS011;7175;51.978;5.330;2023-01-30T11:47:47;19.40;;;17.90;;
14187;SDS011;7175;51.978;5.330;2023-01-30T11:50:26;19.50;;;18.00;;
14187;SDS011;7175;51.978;5.330;2023-01-30T11:53:13;18.63;;;17.13;;
14187;SDS011;7175;51.978;5.330;2023-01-30T11:55:47;19.00;;;17.50;;
14187;SDS011;7175;51.978;5.330;2023-01-30T11:58:30;18.50;;;17.07;;
14187;SDS011;7175;51.978;5.330;2023-01-30T12:01:00;18.60;;;17.10;;
14187;SDS011;7175;51.978;5.330;2023-01-30T12:03:30;18.27;;;16.87;;
14187;SDS011;7175;51.978;5.330;2023-01-30T12:06:00;18.30;;;16.90;;
14187;SDS011;7175;51.978;5.330;2023-01-30T12:08:31;17.90;;;16.50;;
14187;SDS011;7175;51.978;5.330;2023-01-30T12:11:22;18.20;;;16.80;;
14187;SDS011;7175;51.978;5.330;2023-01-30T12:14:00;18.50;;;17.00;;
14187;SDS011;7175;51.978;5.330;2023-01-30T12:16:42;19.77;;;18.17;;
14187;SDS011;7175;51.978;5.330;2023-01-30T12:19:23;18.07;;;16.63;;
14187;SDS011;7175;51.978;5.330;2023-01-30T12:22:01;17.67;;;16.27;;
14187;SDS011;7175;51.978;5.330;2023-01-30T12:24:37;18.23;;;16.73;;
14187;SDS011;7175;51.978;5.330;2023-01-30T12:27:11;18.50;;;17.00;;
14187;SDS011;7175;51.978;5.330;2023-01-30T12:29:46;18.70;;;17.20;;
14187;SDS011;7175;51.978;5.330;2023-01-30T12:32:24;17.97;;;16.57;;
14187;SDS011;7175;51.978;5.330;2023-01-30T12:34:54;18.37;;;16.87;;
14187;SDS011;7175;51.978;5.330;2023-01-30T12:37:35;18.10;;;16.70;;
14187;SDS011;7175;51.978;5.330;2023-01-30T12:40:19;18.63;;;17.13;;
14187;SDS011;7175;51.978;5.330;2023-01-30T12:43:10;18.50;;;17.00;;
14187;SDS011;7175;51.978;5.330;2023-01-30T12:46:04;18.70;;;16.90;;
14187;SDS011;7175;51.978;5.330;2023-01-30T12:48:54;20.20;;;18.50;;
14187;SDS011;7175;51.978;5.330;2023-01-30T12:51:53;18.07;;;16.67;;
14187;SDS011;7175;51.978;5.330;2023-01-30T12:54:35;18.80;;;17.30;;
14187;SDS011;7175;51.978;5.330;2023-01-30T12:57:15;18.23;;;16.83;;
14187;SDS011;7175;51.978;5.330;2023-01-30T12:59:52;17.63;;;16.23;;
14187;SDS011;7175;51.978;5.330;2023-01-30T13:02:35;18.27;;;16.77;;
14187;SDS011;7175;51.978;5.330;2023-01-30T13:05:20;18.77;;;17.27;;
14187;SDS011;7175;51.978;5.330;2023-01-30T13:08:01;17.87;;;16.47;;
14187;SDS011;7175;51.978;5.330;2023-01-30T13:10:41;44.47;;;17.83;;
14187;SDS011;7175;51.978;5.330;2023-01-30T13:13:16;17.97;;;16.57;;
14187;SDS011;7175;51.978;5.330;2023-01-30T13:15:51;17.77;;;16.37;;
14187;SDS011;7175;51.978;5.330;2023-01-30T13:18:28;17.87;;;16.47;;
14187;SDS011;7175;51.978;5.330;2023-01-30T13:21:04;18.00;;;16.60;;
14187;SDS011;7175;51.978;5.330;2023-01-30T13:23:44;21.80;;;18.07;;
14187;SDS011;7175;51.978;5.330;2023-01-30T13:26:29;20.20;;;18.53;;
14187;SDS011;7175;51.978;5.330;2023-01-30T13:29:01;18.53;;;17.03;;
14187;SDS011;7175;51.978;5.330;2023-01-30T13:31:37;18.53;;;17.03;;
14187;SDS011;7175;51.978;5.330;2023-01-30T13:34:18;19.80;;;18.30;;
14187;SDS011;7175;51.978;5.330;2023-01-30T13:36:53;19.70;;;17.30;;
14187;SDS011;7175;51.978;5.330;2023-01-30T13:39:29;18.70;;;17.20;;
14187;SDS011;7175;51.978;5.330;2023-01-30T13:42:09;18.80;;;17.30;;
14187;SDS011;7175;51.978;5.330;2023-01-30T13:44:44;19.03;;;17.53;;
14187;SDS011;7175;51.978;5.330;2023-01-30T13:47:18;19.47;;;17.87;;
14187;SDS011;7175;51.978;5.330;2023-01-30T13:50:15;19.47;;;17.87;;
14187;SDS011;7175;51.978;5.330;2023-01-30T13:53:07;18.83;;;17.33;;
14187;SDS011;7175;51.978;5.330;2023-01-30T13:55:44;19.93;;;18.33;;
14187;SDS011;7175;51.978;5.330;2023-01-30T13:58:20;19.13;;;17.63;;
14187;SDS011;7175;51.978;5.330;2023-01-30T14:01:01;19.70;;;18.10;;
14187;SDS011;7175;51.978;5.330;2023-01-30T14:03:30;18.43;;;16.93;;
14187;SDS011;7175;51.978;5.330;2023-01-30T14:09:03;18.77;;;17.27;;
14187;SDS011;7175;51.978;5.330;2023-01-30T14:11:55;18.47;;;16.97;;
14187;SDS011;7175;51.978;5.330;2023-01-30T14:14:25;18.47;;;16.97;;
14187;SDS011;7175;51.978;5.330;2023-01-30T14:17:06;18.50;;;17.00;;
14187;SDS011;7175;51.978;5.330;2023-01-30T14:19:37;19.20;;;17.70;;
14187;SDS011;7175;51.978;5.330;2023-01-30T14:22:21;18.60;;;17.10;;
14187;SDS011;7175;51.978;5.330;2023-01-30T14:37:25;19.03;;;17.53;;
14187;SDS011;7175;51.978;5.330;2023-01-30T14:49:28;20.07;;;18.47;;
14187;SDS011;7175;51.978;5.330;2023-01-30T14:52:00;20.27;;;18.67;;
14187;SDS011;7175;51.978;5.330;2023-01-30T14:54:33;20.50;;;18.90;;
14187;SDS011;7175;51.978;5.330;2023-01-30T14:57:24;19.53;;;17.93;;
14187;SDS011;7175;51.978;5.330;2023-01-30T14:59:59;19.50;;;17.90;;
14187;SDS011;7175;51.978;5.330;2023-01-30T15:02:48;19.50;;;17.90;;
14187;SDS011;7175;51.978;5.330;2023-01-30T15:05:19;20.27;;;18.67;;
14187;SDS011;7175;51.978;5.330;2023-01-30T15:07:56;19.60;;;18.10;;
14187;SDS011;7175;51.978;5.330;2023-01-30T15:13:33;19.33;;;17.83;;
14187;SDS011;7175;51.978;5.330;2023-01-30T15:16:17;19.37;;;17.87;;
14187;SDS011;7175;51.978;5.330;2023-01-30T15:19:03;19.63;;;18.03;;
14187;SDS011;7175;51.978;5.330;2023-01-30T15:21:48;19.37;;;17.87;;
14187;SDS011;7175;51.978;5.330;2023-01-30T15:27:18;20.17;;;18.57;;
14187;SDS011;7175;51.978;5.330;2023-01-30T15:29:59;21.20;;;19.50;;
14187;SDS011;7175;51.978;5.330;2023-01-30T15:32:43;21.17;;;19.47;;
14187;SDS011;7175;51.978;5.330;2023-01-30T15:35:19;20.17;;;18.57;;
14187;SDS011;7175;51.978;5.330;2023-01-30T15:37:51;21.43;;;19.73;;
14187;SDS011;7175;51.978;5.330;2023-01-30T15:40:23;21.97;;;20.13;;
14187;SDS011;7175;51.978;5.330;2023-01-30T15:42:56;21.20;;;19.50;;
14187;SDS011;7175;51.978;5.330;2023-01-30T15:45:41;20.57;;;18.87;;
14187;SDS011;7175;51.978;5.330;2023-01-30T15:51:11;20.63;;;18.93;;
14187;SDS011;7175;51.978;5.330;2023-01-30T15:53:42;20.23;;;18.53;;
14187;SDS011;7175;51.978;5.330;2023-01-30T15:56:15;20.33;;;18.63;;